< < Back
Terminal Aerodrome Forecast


Current Version              Previous Versions:   1  2  3  4  5  6  7  8  9  

Terminal Aerodrome Forecast

212
FTUS42 KCHS 312300
TAFCHS
TAF
KCHS 312322Z 0100/0124 07006KT P6SM VCSH SCT025 BKN050
     FM010200 VRB05KT P6SM SCT025 BKN100
     FM010900 VRB04KT 4SM SHRA BR SCT012 BKN025
     FM011600 04006KT 6SM SHRA VCTS SCT025 BKN040CB
     FM012000 12008KT P6SM BKN040=

Latest METAR

890
SAUS80 KWBC 010402
MTRCHS
METAR KCHS 010356Z 04003KT 10SM FEW010 SCT020 24/22 A3004 RMK AO2 RAE07
SLP171 SCT V BKN P0001 T02390222 $


USA.gov is the U.S. government's official web portal to all federal, state and local government web resources and services.